createdAt,value
2023-05-20T00:01:29.492Z,11.40
2023-05-20T00:03:57.975Z,11.40
2023-05-20T00:06:26.762Z,11.40
2023-05-20T00:08:55.724Z,11.50
2023-05-20T00:11:26.301Z,11.50
2023-05-20T00:13:54.600Z,11.40
2023-05-20T00:16:22.843Z,11.50
2023-05-20T00:18:51.202Z,11.40
2023-05-20T00:21:19.867Z,11.40
2023-05-20T00:23:48.162Z,11.30
2023-05-20T00:26:16.364Z,11.30
2023-05-20T00:28:46.084Z,11.30
2023-05-20T00:31:14.585Z,11.40
2023-05-20T00:33:42.883Z,11.30
2023-05-20T00:36:11.723Z,11.30
2023-05-20T00:38:39.993Z,11.40
2023-05-20T00:41:08.330Z,11.40
2023-05-20T00:43:36.828Z,11.40
2023-05-20T00:46:06.940Z,11.50
2023-05-20T00:48:43.556Z,11.50
2023-05-20T00:51:13.454Z,11.50
2023-05-20T00:53:43.081Z,11.50
2023-05-20T00:56:13.001Z,11.60
2023-05-20T00:58:41.845Z,11.50
2023-05-20T01:01:11.528Z,11.50
2023-05-20T01:03:42.312Z,11.50
2023-05-20T01:06:10.960Z,11.50
2023-05-20T01:08:39.216Z,11.50
2023-05-20T01:11:12.675Z,11.50
2023-05-20T01:13:48.643Z,11.50
2023-05-20T01:16:21.444Z,11.50
2023-05-20T01:18:52.193Z,11.50
2023-05-20T01:21:21.909Z,11.50
2023-05-20T01:23:51.745Z,11.50
2023-05-20T01:26:21.728Z,11.50
2023-05-20T01:28:51.099Z,11.50
2023-05-20T01:31:28.131Z,11.60
2023-05-20T01:34:04.682Z,11.50
2023-05-20T01:36:34.948Z,11.50
2023-05-20T01:39:09.328Z,11.70
2023-05-20T01:41:39.000Z,11.70
2023-05-20T01:44:07.973Z,11.60
2023-05-20T01:46:36.288Z,11.50
2023-05-20T01:49:05.706Z,11.50
2023-05-20T01:51:35.302Z,11.50
2023-05-20T01:54:05.114Z,11.50
2023-05-20T01:56:35.856Z,11.50
2023-05-20T01:59:04.320Z,11.50
2023-05-20T02:01:41.432Z,11.50
2023-05-20T02:04:09.845Z,11.50
2023-05-20T02:06:38.095Z,11.50
2023-05-20T02:09:07.790Z,11.50
2023-05-20T02:11:36.241Z,11.50
2023-05-20T02:14:04.523Z,11.50
2023-05-20T02:16:32.821Z,11.50
2023-05-20T02:19:02.230Z,11.50
2023-05-20T02:21:31.237Z,11.50
2023-05-20T02:23:59.523Z,11.70
2023-05-20T02:26:29.101Z,11.70
2023-05-20T02:28:57.345Z,11.70
2023-05-20T02:31:26.015Z,11.70
2023-05-20T02:33:54.566Z,11.80
2023-05-20T02:36:22.859Z,11.90
2023-05-20T02:38:51.179Z,11.80
2023-05-20T02:41:19.487Z,11.90
2023-05-20T02:43:49.236Z,11.90
2023-05-20T02:46:18.632Z,12.00
2023-05-20T02:48:47.119Z,11.90
2023-05-20T02:51:15.749Z,11.70
2023-05-20T02:53:44.012Z,11.70
2023-05-20T02:56:13.417Z,11.80
2023-05-20T02:58:41.862Z,11.50
2023-05-20T03:01:11.596Z,11.80
2023-05-20T03:03:40.738Z,11.90
2023-05-20T03:06:09.659Z,11.80
2023-05-20T03:08:40.231Z,11.90
2023-05-20T03:11:08.513Z,11.90
2023-05-20T03:13:36.767Z,11.90
2023-05-20T03:16:05.682Z,11.90
2023-05-20T03:18:35.592Z,11.80
2023-05-20T03:21:04.143Z,11.80
2023-05-20T03:23:32.396Z,11.70
2023-05-20T03:26:00.785Z,11.70
2023-05-20T03:28:29.063Z,11.70
2023-05-20T03:30:57.345Z,11.70
2023-05-20T03:33:27.274Z,11.60
2023-05-20T03:35:56.927Z,11.80
2023-05-20T03:38:25.173Z,11.70
2023-05-20T03:40:53.405Z,11.70
2023-05-20T03:43:21.776Z,11.90
2023-05-20T03:45:50.046Z,12.10
2023-05-20T03:48:18.250Z,12.00
2023-05-20T03:50:46.496Z,12.00
2023-05-20T03:53:17.399Z,12.20
2023-05-20T03:55:45.838Z,12.20
2023-05-20T03:58:15.233Z,12.30
2023-05-20T04:00:43.512Z,12.30
2023-05-20T04:03:12.441Z,12.20
2023-05-20T04:05:41.155Z,12.30
2023-05-20T04:08:09.906Z,12.30
2023-05-20T04:10:39.444Z,12.20
2023-05-20T04:13:07.636Z,12.30
2023-05-20T04:15:37.268Z,12.30
2023-05-20T04:18:06.527Z,12.40
2023-05-20T04:20:34.888Z,12.40
2023-05-20T04:23:03.116Z,12.50
2023-05-20T04:25:31.336Z,12.40
2023-05-20T04:28:01.394Z,12.50
2023-05-20T04:30:30.111Z,12.50
2023-05-20T04:32:58.370Z,12.50
2023-05-20T04:35:26.924Z,12.50
2023-05-20T04:37:55.347Z,12.50
2023-05-20T04:40:23.844Z,12.50
2023-05-20T04:42:52.040Z,12.60
2023-05-20T04:45:23.288Z,12.50
2023-05-20T04:47:53.200Z,12.60
2023-05-20T04:50:22.046Z,12.60
2023-05-20T04:52:50.627Z,12.70
2023-05-20T04:55:19.806Z,12.50
2023-05-20T04:57:48.076Z,12.70
2023-05-20T05:00:16.768Z,12.70
2023-05-20T05:02:46.966Z,12.80
2023-05-20T05:05:15.436Z,12.90
2023-05-20T05:07:43.688Z,12.90
2023-05-20T05:10:13.306Z,12.90
2023-05-20T05:12:41.560Z,12.90
2023-05-20T05:15:11.178Z,12.90
2023-05-20T05:17:39.475Z,13.00
2023-05-20T05:20:11.176Z,13.00
2023-05-20T05:22:41.299Z,13.00
2023-05-20T05:25:11.361Z,13.10
2023-05-20T05:27:40.188Z,13.20
2023-05-20T05:30:09.965Z,13.10
2023-05-20T05:32:38.998Z,13.20
2023-05-20T05:35:09.831Z,13.20
2023-05-20T05:37:38.099Z,13.10
2023-05-20T05:40:10.125Z,13.20
2023-05-20T05:42:38.365Z,13.30
2023-05-20T05:45:07.947Z,13.20
2023-05-20T05:47:36.438Z,13.30
2023-05-20T05:50:05.088Z,13.40
2023-05-20T05:52:34.695Z,13.60
2023-05-20T05:55:03.921Z,13.60
2023-05-20T05:57:32.303Z,13.70
2023-05-20T06:00:00.986Z,13.70
2023-05-20T06:02:29.378Z,13.70
2023-05-20T06:04:57.763Z,13.70
2023-05-20T06:07:25.944Z,13.80
2023-05-20T06:09:55.636Z,13.80
2023-05-20T06:12:24.033Z,14.00
2023-05-20T06:14:52.410Z,14.10
2023-05-20T06:17:20.713Z,14.00
2023-05-20T06:19:48.943Z,14.10
2023-05-20T06:22:17.214Z,14.10
2023-05-20T06:24:45.519Z,14.00
2023-05-20T06:27:15.208Z,14.10
2023-05-20T06:29:44.014Z,14.10
2023-05-20T06:32:12.429Z,14.10
2023-05-20T06:34:41.099Z,14.30
2023-05-20T06:37:09.311Z,14.50
2023-05-20T06:39:37.556Z,14.50
2023-05-20T06:42:06.504Z,14.50
2023-05-20T06:44:36.059Z,14.40
2023-05-20T06:47:04.435Z,14.50
2023-05-20T06:49:32.630Z,14.60
2023-05-20T06:52:00.918Z,14.60
2023-05-20T06:54:29.172Z,14.60
2023-05-20T06:56:57.487Z,14.60
2023-05-20T06:59:25.735Z,14.80
2023-05-20T07:01:55.299Z,14.90
2023-05-20T07:04:23.523Z,15.00
2023-05-20T07:06:51.991Z,15.10
2023-05-20T07:09:20.168Z,15.20
2023-05-20T07:11:48.540Z,15.30
2023-05-20T07:14:16.756Z,15.40
2023-05-20T07:16:44.988Z,15.30
2023-05-20T07:19:14.564Z,15.30
2023-05-20T07:21:52.194Z,15.30
2023-05-20T07:24:20.438Z,15.40
2023-05-20T07:26:48.650Z,15.30
2023-05-20T07:29:16.871Z,15.40
2023-05-20T07:31:45.159Z,15.50
2023-05-20T07:34:14.777Z,15.60
2023-05-20T07:36:43.723Z,15.80
2023-05-20T07:39:14.950Z,16.00
2023-05-20T07:41:43.717Z,16.20
2023-05-20T07:44:12.984Z,16.30
2023-05-20T07:46:41.857Z,16.00
2023-05-20T07:49:10.276Z,15.90
2023-05-20T07:51:39.904Z,15.70
2023-05-20T07:54:08.197Z,15.60
2023-05-20T07:56:36.491Z,15.60
2023-05-20T07:59:04.889Z,15.60
2023-05-20T08:01:33.513Z,15.40
2023-05-20T08:04:01.947Z,15.30
2023-05-20T08:06:30.222Z,15.20
2023-05-20T08:08:59.962Z,15.10
2023-05-20T08:11:28.315Z,15.30
2023-05-20T08:13:56.589Z,15.20
2023-05-20T08:16:24.857Z,15.20
2023-05-20T08:18:53.110Z,15.20
2023-05-20T08:21:21.725Z,15.40
2023-05-20T08:23:50.134Z,15.70
2023-05-20T08:26:20.196Z,16.00
2023-05-20T08:28:48.559Z,16.30
2023-05-20T08:31:17.855Z,16.30
2023-05-20T08:33:46.137Z,16.20
2023-05-20T08:36:14.760Z,16.10
2023-05-20T08:38:43.583Z,15.90
2023-05-20T08:41:11.843Z,15.60
2023-05-20T08:43:42.039Z,15.60
2023-05-20T08:46:11.690Z,15.70
2023-05-20T08:48:40.991Z,16.20
2023-05-20T08:51:12.158Z,16.40
2023-05-20T08:53:41.489Z,16.60
2023-05-20T08:56:12.536Z,16.80
2023-05-20T08:58:43.024Z,16.70
2023-05-20T09:01:11.275Z,16.70
2023-05-20T09:03:39.599Z,16.60
2023-05-20T09:06:10.016Z,16.60
2023-05-20T09:08:38.780Z,16.40
2023-05-20T09:11:07.099Z,16.20
2023-05-20T09:13:35.597Z,16.20
2023-05-20T09:16:05.788Z,16.30
2023-05-20T09:18:34.337Z,16.20
2023-05-20T09:21:07.869Z,16.30
2023-05-20T09:23:39.145Z,16.30
2023-05-20T09:26:07.701Z,16.60
2023-05-20T09:28:38.308Z,16.70
2023-05-20T09:31:09.515Z,16.80
2023-05-20T09:33:39.580Z,16.80
2023-05-20T09:36:10.658Z,16.90
2023-05-20T09:38:41.581Z,16.80
2023-05-20T09:41:13.716Z,16.90
2023-05-20T09:43:42.723Z,16.90
2023-05-20T09:46:13.007Z,16.80
2023-05-20T09:48:41.756Z,16.90
2023-05-20T09:51:13.431Z,17.00
2023-05-20T09:53:43.297Z,17.20
2023-05-20T09:56:12.188Z,17.30
2023-05-20T09:58:43.530Z,17.40
2023-05-20T10:01:13.501Z,17.40
2023-05-20T10:03:44.157Z,17.50
2023-05-20T10:06:37.591Z,17.50
2023-05-20T10:09:33.411Z,17.40
2023-05-20T10:12:20.461Z,17.30
2023-05-20T10:15:04.020Z,17.50
2023-05-20T10:17:47.674Z,17.70
2023-05-20T10:20:16.662Z,18.00
2023-05-20T10:22:45.353Z,18.30
2023-05-20T10:25:26.552Z,18.40
2023-05-20T10:28:08.900Z,18.50
2023-05-20T10:30:39.911Z,18.60
2023-05-20T10:33:19.159Z,18.60
2023-05-20T10:35:52.252Z,18.60
2023-05-20T10:38:22.024Z,18.70
2023-05-20T10:40:50.373Z,18.80
2023-05-20T10:43:28.616Z,18.90
2023-05-20T10:46:00.267Z,18.90
2023-05-20T10:48:32.887Z,19.10
2023-05-20T10:51:04.774Z,19.20
2023-05-20T10:53:42.201Z,19.40
2023-05-20T10:56:19.653Z,19.50
2023-05-20T10:58:48.846Z,19.10
2023-05-20T11:01:19.158Z,19.10
2023-05-20T11:03:51.082Z,19.10
2023-05-20T11:06:20.360Z,19.30
2023-05-20T11:08:48.609Z,19.70
2023-05-20T11:11:17.186Z,19.80
2023-05-20T11:13:45.526Z,19.90
2023-05-20T11:16:14.213Z,19.90
2023-05-20T11:18:42.592Z,20.20
2023-05-20T11:21:12.399Z,20.40
2023-05-20T11:23:40.860Z,20.40
2023-05-20T11:26:09.451Z,20.40
2023-05-20T11:28:39.382Z,20.70
2023-05-20T11:31:08.210Z,20.20
2023-05-20T11:33:36.662Z,20.30
2023-05-20T11:36:08.748Z,20.20
2023-05-20T11:38:43.876Z,20.20
2023-05-20T11:41:12.197Z,20.30
2023-05-20T11:43:42.730Z,20.60
2023-05-20T11:46:11.646Z,20.20
2023-05-20T11:48:42.031Z,20.30
2023-05-20T11:51:10.375Z,20.50
2023-05-20T11:53:44.134Z,20.70
2023-05-20T11:56:12.703Z,20.70
2023-05-20T11:58:41.403Z,21.00
2023-05-20T12:01:21.731Z,21.40
2023-05-20T12:03:51.614Z,22.00
2023-05-20T12:06:20.794Z,21.80
2023-05-20T12:08:50.330Z,21.70
2023-05-20T12:11:19.008Z,21.20
2023-05-20T12:13:47.340Z,21.00
2023-05-20T12:16:15.908Z,21.20
2023-05-20T12:18:44.167Z,21.10
2023-05-20T12:21:12.478Z,21.20
2023-05-20T12:23:40.820Z,21.30
2023-05-20T12:26:10.552Z,21.60
2023-05-20T12:28:38.779Z,21.50
2023-05-20T12:31:07.746Z,21.40
2023-05-20T12:33:35.986Z,21.30
2023-05-20T12:36:04.285Z,21.30
2023-05-20T12:38:32.504Z,21.40
2023-05-20T12:41:00.814Z,21.30
2023-05-20T12:43:30.385Z,21.30
2023-05-20T12:45:58.678Z,21.30
2023-05-20T12:48:26.981Z,21.80
2023-05-20T12:50:55.176Z,22.40
2023-05-20T12:53:23.336Z,23.00
2023-05-20T12:55:51.651Z,23.50
2023-05-20T12:58:19.855Z,23.60
2023-05-20T13:00:49.903Z,23.90
2023-05-20T13:03:18.314Z,23.70
2023-05-20T13:05:47.171Z,23.80
2023-05-20T13:08:15.448Z,24.10
2023-05-20T13:10:43.688Z,24.50
2023-05-20T13:13:13.782Z,25.20
2023-05-20T13:15:42.001Z,25.40
2023-05-20T13:18:11.711Z,25.10
2023-05-20T13:20:40.468Z,24.90
2023-05-20T13:23:09.230Z,24.90
2023-05-20T13:25:37.719Z,25.10
2023-05-20T13:28:10.999Z,25.30
2023-05-20T13:30:39.465Z,25.00
2023-05-20T13:33:07.974Z,24.60
2023-05-20T13:35:37.741Z,24.90
2023-05-20T13:38:06.058Z,24.80
2023-05-20T13:40:34.642Z,24.70
2023-05-20T13:43:02.992Z,24.80
2023-05-20T13:45:31.301Z,25.30
2023-05-20T13:47:59.720Z,25.80
2023-05-20T13:50:28.038Z,25.80
2023-05-20T13:52:57.619Z,25.70
2023-05-20T13:55:26.045Z,25.40
2023-05-20T13:57:54.378Z,25.70
2023-05-20T14:00:22.754Z,25.70
2023-05-20T14:02:51.127Z,26.00
2023-05-20T14:05:19.568Z,25.90
2023-05-20T14:07:47.777Z,25.50
2023-05-20T14:10:20.263Z,24.30
2023-05-20T14:12:48.841Z,23.40
2023-05-20T14:15:17.207Z,22.80
2023-05-20T14:17:45.805Z,22.90
2023-05-20T14:20:15.782Z,23.80
2023-05-20T14:22:44.479Z,24.70
2023-05-20T14:25:12.975Z,25.60
2023-05-20T14:27:42.809Z,25.50
2023-05-20T14:30:12.591Z,25.50
2023-05-20T14:32:40.930Z,25.90
2023-05-20T14:35:10.094Z,26.00
2023-05-20T14:37:38.317Z,26.40
2023-05-20T14:40:08.214Z,25.60
2023-05-20T14:42:37.543Z,26.10
2023-05-20T14:45:08.918Z,26.20
2023-05-20T14:47:40.000Z,26.40
2023-05-20T14:50:09.246Z,26.30
2023-05-20T14:52:37.457Z,26.60
2023-05-20T14:55:08.072Z,26.80
2023-05-20T14:57:36.291Z,26.70
2023-05-20T15:00:07.085Z,26.90
2023-05-20T15:02:35.667Z,26.30
2023-05-20T15:05:03.953Z,26.50
2023-05-20T15:07:32.154Z,26.10
2023-05-20T15:10:00.421Z,25.70
2023-05-20T15:12:28.683Z,25.80
2023-05-20T15:14:56.999Z,25.40
2023-05-20T15:17:26.680Z,24.90
2023-05-20T15:19:55.024Z,24.50
2023-05-20T15:22:23.268Z,24.00
2023-05-20T15:24:51.522Z,23.60
2023-05-20T15:27:19.943Z,23.40
2023-05-20T15:29:48.612Z,23.50
2023-05-20T15:32:17.523Z,23.40
2023-05-20T15:34:47.269Z,23.20
2023-05-20T15:37:16.218Z,23.20
2023-05-20T15:39:44.658Z,23.20
2023-05-20T15:42:13.972Z,23.20
2023-05-20T15:44:42.216Z,23.20
2023-05-20T15:47:10.768Z,22.90
2023-05-20T15:49:39.051Z,22.90
2023-05-20T15:52:09.063Z,22.80
2023-05-20T15:54:37.295Z,22.80
2023-05-20T15:57:06.327Z,22.60
2023-05-20T15:59:34.639Z,22.60
2023-05-20T16:02:03.002Z,22.60
2023-05-20T16:04:32.527Z,22.40
2023-05-20T16:07:00.958Z,22.30
2023-05-20T16:09:31.101Z,22.30
2023-05-20T16:11:59.511Z,22.30
2023-05-20T16:14:27.804Z,22.20
2023-05-20T16:16:56.042Z,22.30
2023-05-20T16:19:24.388Z,22.20
2023-05-20T16:21:52.661Z,22.10
2023-05-20T16:24:21.026Z,22.10
2023-05-20T16:26:50.627Z,22.10
2023-05-20T16:29:18.853Z,22.00
2023-05-20T16:31:47.426Z,21.80
2023-05-20T16:34:16.886Z,21.80
2023-05-20T16:36:46.223Z,21.80
2023-05-20T16:39:14.722Z,21.80
2023-05-20T16:41:43.690Z,21.70
2023-05-20T16:44:13.292Z,21.70
2023-05-20T16:46:41.579Z,21.60
2023-05-20T16:49:09.862Z,21.60
2023-05-20T16:51:38.208Z,21.50
2023-05-20T16:54:06.416Z,21.40
2023-05-20T16:56:35.310Z,21.30
2023-05-20T16:59:03.851Z,21.30
2023-05-20T17:01:33.578Z,21.20
2023-05-20T17:04:02.000Z,21.20
2023-05-20T17:06:34.206Z,21.00
2023-05-20T17:09:04.903Z,21.00
2023-05-20T17:11:33.759Z,20.90
2023-05-20T17:14:02.954Z,20.90
2023-05-20T17:16:32.659Z,20.90
2023-05-20T17:19:01.296Z,20.90
2023-05-20T17:21:29.559Z,20.90
2023-05-20T17:23:57.816Z,20.80
2023-05-20T17:26:26.255Z,20.70
2023-05-20T17:28:54.585Z,20.70
2023-05-20T17:31:23.043Z,20.60
2023-05-20T17:33:52.831Z,20.50
2023-05-20T17:36:23.175Z,20.50
2023-05-20T17:38:51.957Z,20.50
2023-05-20T17:41:20.235Z,20.50
2023-05-20T17:43:48.543Z,20.50
2023-05-20T17:46:17.103Z,20.50
2023-05-20T17:48:45.685Z,20.40
2023-05-20T17:51:15.522Z,20.40
2023-05-20T17:53:43.806Z,20.40
2023-05-20T17:56:12.331Z,20.30
2023-05-20T17:58:40.639Z,20.30
2023-05-20T18:01:09.722Z,20.30
2023-05-20T18:03:39.703Z,20.30
2023-05-20T18:06:08.804Z,20.20
2023-05-20T18:08:38.571Z,20.10
2023-05-20T18:11:06.861Z,20.00
2023-05-20T18:13:35.161Z,20.00
2023-05-20T18:16:03.494Z,19.90
2023-05-20T18:18:31.848Z,19.80
2023-05-20T18:21:00.196Z,19.80
2023-05-20T18:23:28.747Z,19.70
2023-05-20T18:25:58.734Z,19.70
2023-05-20T18:28:27.112Z,19.70
2023-05-20T18:30:57.446Z,19.70
2023-05-20T18:33:26.188Z,19.60
2023-05-20T18:35:54.915Z,19.50
2023-05-20T18:38:23.381Z,19.50
2023-05-20T18:40:51.919Z,19.50
2023-05-20T18:43:21.657Z,19.50
2023-05-20T18:45:50.033Z,19.40
2023-05-20T18:48:26.135Z,19.40
2023-05-20T18:50:55.626Z,19.40
2023-05-20T18:53:23.931Z,19.30
2023-05-20T18:55:52.395Z,19.30
2023-05-20T18:58:22.390Z,19.20
2023-05-20T19:00:51.142Z,19.10
2023-05-20T19:03:19.821Z,19.10
2023-05-20T19:05:48.203Z,19.00
2023-05-20T19:08:16.652Z,19.00
2023-05-20T19:10:45.107Z,18.90
2023-05-20T19:13:13.703Z,18.90
2023-05-20T19:15:43.488Z,18.80
2023-05-20T19:18:12.305Z,18.80
2023-05-20T19:20:40.808Z,18.80
2023-05-20T19:23:09.148Z,18.70
2023-05-20T19:25:37.658Z,18.70
2023-05-20T19:28:06.356Z,18.60
2023-05-20T19:30:34.659Z,18.50
2023-05-20T19:33:06.673Z,18.60
2023-05-20T19:35:35.302Z,18.50
2023-05-20T19:38:04.958Z,18.50
2023-05-20T19:40:33.495Z,18.50
2023-05-20T19:43:01.797Z,18.30
2023-05-20T19:45:30.116Z,18.30
2023-05-20T19:47:58.468Z,18.20
2023-05-20T19:50:28.068Z,18.20
2023-05-20T19:52:56.325Z,18.10
2023-05-20T19:55:24.881Z,18.10
2023-05-20T19:57:53.533Z,18.00
2023-05-20T20:00:21.991Z,17.90
2023-05-20T20:02:50.786Z,17.90
2023-05-20T20:05:22.285Z,17.90
2023-05-20T20:07:53.864Z,17.90
2023-05-20T20:10:22.510Z,17.80
2023-05-20T20:12:50.898Z,17.80
2023-05-20T20:15:20.645Z,17.70
2023-05-20T20:17:52.235Z,17.60
2023-05-20T20:20:20.987Z,17.70
2023-05-20T20:22:49.488Z,17.70
2023-05-20T20:25:20.431Z,17.70
2023-05-20T20:27:50.039Z,17.60
2023-05-20T20:30:18.350Z,17.60
2023-05-20T20:32:48.215Z,17.50
2023-05-20T20:35:17.386Z,17.50
2023-05-20T20:37:46.005Z,17.50
2023-05-20T20:40:22.039Z,17.40
2023-05-20T20:42:50.580Z,17.30
2023-05-20T20:45:22.737Z,17.60
2023-05-20T20:47:55.022Z,17.20
2023-05-20T20:50:23.609Z,17.10
2023-05-20T20:52:51.895Z,17.00
2023-05-20T20:55:21.807Z,16.90
2023-05-20T20:57:51.431Z,16.90
2023-05-20T21:00:21.236Z,16.90
2023-05-20T21:02:49.894Z,16.90
2023-05-20T21:05:20.703Z,16.80
2023-05-20T21:08:03.908Z,16.80
2023-05-20T21:10:35.906Z,16.60
2023-05-20T21:13:07.614Z,16.70
2023-05-20T21:15:36.514Z,16.60
2023-05-20T21:18:21.818Z,16.60
2023-05-20T21:20:52.429Z,16.60
2023-05-20T21:23:22.198Z,16.50
2023-05-20T21:25:51.927Z,16.30
2023-05-20T21:28:20.243Z,16.20
2023-05-20T21:30:48.444Z,16.20
2023-05-20T21:33:16.752Z,16.30
2023-05-20T21:35:45.329Z,16.10
2023-05-20T21:38:14.184Z,16.00
2023-05-20T21:40:43.104Z,15.90
2023-05-20T21:43:12.800Z,15.80
2023-05-20T21:45:41.010Z,15.80
2023-05-20T21:48:09.635Z,15.70
2023-05-20T21:50:37.842Z,15.60
2023-05-20T21:53:06.114Z,15.50
2023-05-20T21:55:34.478Z,15.40
2023-05-20T21:58:02.870Z,15.40
2023-05-20T22:00:32.821Z,15.30
2023-05-20T22:03:01.110Z,15.20
2023-05-20T22:05:29.556Z,15.20
2023-05-20T22:08:00.372Z,15.10
2023-05-20T22:10:28.752Z,15.10
2023-05-20T22:12:58.082Z,15.20
2023-05-20T22:15:26.789Z,15.20
2023-05-20T22:17:56.973Z,15.10
2023-05-20T22:20:28.661Z,15.00
2023-05-20T22:22:56.888Z,15.00
2023-05-20T22:25:25.220Z,14.90
2023-05-20T22:27:53.526Z,14.90
2023-05-20T22:30:21.825Z,14.80
2023-05-20T22:32:50.018Z,14.80
2023-05-20T22:35:19.742Z,14.70
2023-05-20T22:37:48.251Z,14.80
2023-05-20T22:40:16.863Z,14.70
2023-05-20T22:42:45.141Z,14.80
2023-05-20T22:45:13.407Z,14.90
2023-05-20T22:47:41.799Z,14.80
2023-05-20T22:50:13.501Z,14.90
2023-05-20T22:52:44.319Z,14.80
2023-05-20T22:55:12.723Z,14.90
2023-05-20T22:57:40.933Z,14.70
2023-05-20T23:00:13.996Z,14.60
2023-05-20T23:02:42.557Z,14.50
2023-05-20T23:05:11.862Z,14.50
2023-05-20T23:07:40.063Z,14.30
2023-05-20T23:10:10.712Z,14.30
2023-05-20T23:12:39.081Z,14.30
2023-05-20T23:15:09.542Z,14.10
2023-05-20T23:17:39.395Z,14.10
2023-05-20T23:20:10.821Z,14.00
2023-05-20T23:22:39.463Z,13.90
2023-05-20T23:25:10.789Z,13.90
2023-05-20T23:27:39.152Z,13.80
2023-05-20T23:30:09.576Z,13.70
2023-05-20T23:32:38.137Z,13.60
2023-05-20T23:35:07.892Z,13.60
2023-05-20T23:37:36.301Z,13.70
2023-05-20T23:40:06.549Z,14.00
2023-05-20T23:42:36.438Z,13.90
2023-05-20T23:45:08.430Z,13.80
2023-05-20T23:47:37.796Z,14.00
2023-05-20T23:50:07.300Z,14.10
2023-05-20T23:52:36.056Z,14.30
2023-05-20T23:55:04.854Z,14.40
2023-05-20T23:57:33.146Z,14.50
